sensor_id;sensor_type;location;lat;lon;timestamp;P1;durP1;ratioP1;P2;durP2;ratioP2
67074;SDS011;53990;50.334;18.640;2022-09-03T00:01:49;6.80;;;3.20;;
67074;SDS011;53990;50.334;18.640;2022-09-03T00:04:43;6.00;;;3.00;;
67074;SDS011;53990;50.334;18.640;2022-09-03T00:07:17;8.60;;;3.20;;
67074;SDS011;53990;50.334;18.640;2022-09-03T00:09:48;5.50;;;3.10;;
67074;SDS011;53990;50.334;18.640;2022-09-03T00:12:27;7.60;;;3.10;;
67074;SDS011;53990;50.334;18.640;2022-09-03T00:15:14;6.10;;;2.90;;
67074;SDS011;53990;50.334;18.640;2022-09-03T00:17:58;7.20;;;3.10;;
67074;SDS011;53990;50.334;18.640;2022-09-03T00:20:30;7.50;;;3.40;;
67074;SDS011;53990;50.334;18.640;2022-09-03T00:23:03;7.00;;;3.30;;
67074;SDS011;53990;50.334;18.640;2022-09-03T00:28:39;6.60;;;3.20;;
67074;SDS011;53990;50.334;18.640;2022-09-03T00:31:18;6.60;;;3.50;;
67074;SDS011;53990;50.334;18.640;2022-09-03T00:33:49;6.50;;;3.10;;
67074;SDS011;53990;50.334;18.640;2022-09-03T00:36:26;6.30;;;3.30;;
67074;SDS011;53990;50.334;18.640;2022-09-03T00:38:54;6.90;;;3.20;;
67074;SDS011;53990;50.334;18.640;2022-09-03T00:47:04;6.60;;;3.30;;
67074;SDS011;53990;50.334;18.640;2022-09-03T00:50:32;6.90;;;3.70;;
67074;SDS011;53990;50.334;18.640;2022-09-03T00:52:37;6.50;;;3.20;;
67074;SDS011;53990;50.334;18.640;2022-09-03T00:55:14;8.80;;;3.40;;
67074;SDS011;53990;50.334;18.640;2022-09-03T00:57:58;6.60;;;3.20;;
67074;SDS011;53990;50.334;18.640;2022-09-03T01:00:29;12.50;;;3.40;;
67074;SDS011;53990;50.334;18.640;2022-09-03T01:11:46;9.60;;;3.90;;
67074;SDS011;53990;50.334;18.640;2022-09-03T01:16:53;8.50;;;3.60;;
67074;SDS011;53990;50.334;18.640;2022-09-03T01:22:02;5.90;;;3.40;;
67074;SDS011;53990;50.334;18.640;2022-09-03T01:27:31;6.30;;;3.60;;
67074;SDS011;53990;50.334;18.640;2022-09-03T01:30:19;6.70;;;3.10;;
67074;SDS011;53990;50.334;18.640;2022-09-03T01:35:47;8.30;;;3.70;;
67074;SDS011;53990;50.334;18.640;2022-09-03T01:38:28;6.00;;;3.70;;
67074;SDS011;53990;50.334;18.640;2022-09-03T01:52:55;6.10;;;3.40;;
67074;SDS011;53990;50.334;18.640;2022-09-03T01:58:13;7.90;;;4.00;;
67074;SDS011;53990;50.334;18.640;2022-09-03T02:00:42;8.30;;;3.80;;
67074;SDS011;53990;50.334;18.640;2022-09-03T02:03:13;6.40;;;3.80;;
67074;SDS011;53990;50.334;18.640;2022-09-03T02:05:41;7.30;;;3.80;;
67074;SDS011;53990;50.334;18.640;2022-09-03T02:08:09;7.00;;;3.80;;
67074;SDS011;53990;50.334;18.640;2022-09-03T02:10:46;7.70;;;4.10;;
67074;SDS011;53990;50.334;18.640;2022-09-03T02:15:44;7.50;;;4.00;;
67074;SDS011;53990;50.334;18.640;2022-09-03T02:18:16;10.80;;;3.90;;
67074;SDS011;53990;50.334;18.640;2022-09-03T02:20:45;8.20;;;3.90;;
67074;SDS011;53990;50.334;18.640;2022-09-03T02:23:14;8.40;;;4.40;;
67074;SDS011;53990;50.334;18.640;2022-09-03T02:25:46;9.40;;;5.70;;
67074;SDS011;53990;50.334;18.640;2022-09-03T02:28:14;10.10;;;4.00;;
67074;SDS011;53990;50.334;18.640;2022-09-03T02:30:42;8.80;;;4.40;;
67074;SDS011;53990;50.334;18.640;2022-09-03T02:33:09;11.90;;;4.50;;
67074;SDS011;53990;50.334;18.640;2022-09-03T02:35:38;8.10;;;4.20;;
67074;SDS011;53990;50.334;18.640;2022-09-03T02:38:18;11.20;;;4.40;;
67074;SDS011;53990;50.334;18.640;2022-09-03T02:40:46;9.70;;;4.50;;
67074;SDS011;53990;50.334;18.640;2022-09-03T02:43:18;9.40;;;4.80;;
67074;SDS011;53990;50.334;18.640;2022-09-03T02:45:50;7.70;;;4.70;;
67074;SDS011;53990;50.334;18.640;2022-09-03T02:48:22;10.50;;;4.70;;
67074;SDS011;53990;50.334;18.640;2022-09-03T02:50:49;9.40;;;4.70;;
67074;SDS011;53990;50.334;18.640;2022-09-03T02:53:16;9.40;;;4.50;;
67074;SDS011;53990;50.334;18.640;2022-09-03T02:55:44;10.40;;;4.70;;
67074;SDS011;53990;50.334;18.640;2022-09-03T02:58:11;9.00;;;4.20;;
67074;SDS011;53990;50.334;18.640;2022-09-03T03:00:39;9.70;;;4.60;;
67074;SDS011;53990;50.334;18.640;2022-09-03T03:03:06;9.90;;;4.60;;
67074;SDS011;53990;50.334;18.640;2022-09-03T03:05:46;7.10;;;3.90;;
67074;SDS011;53990;50.334;18.640;2022-09-03T03:08:14;9.90;;;4.40;;
67074;SDS011;53990;50.334;18.640;2022-09-03T03:10:42;7.60;;;4.30;;
67074;SDS011;53990;50.334;18.640;2022-09-03T03:13:13;10.20;;;3.90;;
67074;SDS011;53990;50.334;18.640;2022-09-03T03:15:41;8.90;;;4.50;;
67074;SDS011;53990;50.334;18.640;2022-09-03T03:18:08;8.70;;;4.30;;
67074;SDS011;53990;50.334;18.640;2022-09-03T03:20:39;7.70;;;3.70;;
67074;SDS011;53990;50.334;18.640;2022-09-03T03:23:07;9.30;;;3.90;;
67074;SDS011;53990;50.334;18.640;2022-09-03T03:25:36;8.90;;;3.80;;
67074;SDS011;53990;50.334;18.640;2022-09-03T03:28:05;7.20;;;3.80;;
67074;SDS011;53990;50.334;18.640;2022-09-03T03:30:33;6.40;;;3.50;;
67074;SDS011;53990;50.334;18.640;2022-09-03T03:33:03;8.00;;;3.30;;
67074;SDS011;53990;50.334;18.640;2022-09-03T03:35:31;5.80;;;3.30;;
67074;SDS011;53990;50.334;18.640;2022-09-03T03:37:58;7.30;;;3.60;;
67074;SDS011;53990;50.334;18.640;2022-09-03T03:40:26;8.00;;;3.80;;
67074;SDS011;53990;50.334;18.640;2022-09-03T03:42:53;6.70;;;3.50;;
67074;SDS011;53990;50.334;18.640;2022-09-03T03:45:21;7.90;;;3.50;;
67074;SDS011;53990;50.334;18.640;2022-09-03T03:47:48;7.10;;;3.30;;
67074;SDS011;53990;50.334;18.640;2022-09-03T03:50:15;6.70;;;3.80;;
67074;SDS011;53990;50.334;18.640;2022-09-03T03:52:43;6.80;;;3.80;;
67074;SDS011;53990;50.334;18.640;2022-09-03T03:55:10;7.80;;;3.60;;
67074;SDS011;53990;50.334;18.640;2022-09-03T03:57:37;9.40;;;4.30;;
67074;SDS011;53990;50.334;18.640;2022-09-03T04:00:05;9.50;;;3.90;;
67074;SDS011;53990;50.334;18.640;2022-09-03T04:02:33;9.90;;;3.90;;
67074;SDS011;53990;50.334;18.640;2022-09-03T04:05:00;7.20;;;3.80;;
67074;SDS011;53990;50.334;18.640;2022-09-03T04:07:27;10.30;;;4.30;;
67074;SDS011;53990;50.334;18.640;2022-09-03T04:09:54;8.20;;;4.30;;
67074;SDS011;53990;50.334;18.640;2022-09-03T04:12:21;8.70;;;4.30;;
67074;SDS011;53990;50.334;18.640;2022-09-03T04:14:48;11.00;;;5.10;;
67074;SDS011;53990;50.334;18.640;2022-09-03T04:17:16;9.60;;;4.70;;
67074;SDS011;53990;50.334;18.640;2022-09-03T04:19:43;9.00;;;5.00;;
67074;SDS011;53990;50.334;18.640;2022-09-03T04:22:14;7.70;;;4.40;;
67074;SDS011;53990;50.334;18.640;2022-09-03T04:24:41;10.80;;;5.00;;
67074;SDS011;53990;50.334;18.640;2022-09-03T04:27:09;11.90;;;5.10;;
67074;SDS011;53990;50.334;18.640;2022-09-03T04:29:36;10.00;;;5.00;;
67074;SDS011;53990;50.334;18.640;2022-09-03T04:32:03;11.60;;;5.20;;
67074;SDS011;53990;50.334;18.640;2022-09-03T04:34:49;10.90;;;5.50;;
67074;SDS011;53990;50.334;18.640;2022-09-03T04:37:16;12.00;;;5.70;;
67074;SDS011;53990;50.334;18.640;2022-09-03T04:39:45;10.60;;;5.40;;
67074;SDS011;53990;50.334;18.640;2022-09-03T04:42:12;11.50;;;5.60;;
67074;SDS011;53990;50.334;18.640;2022-09-03T04:44:40;15.00;;;6.20;;
67074;SDS011;53990;50.334;18.640;2022-09-03T04:47:07;14.20;;;6.30;;
67074;SDS011;53990;50.334;18.640;2022-09-03T04:49:34;9.90;;;5.70;;
67074;SDS011;53990;50.334;18.640;2022-09-03T04:52:02;13.40;;;6.00;;
67074;SDS011;53990;50.334;18.640;2022-09-03T04:54:29;14.10;;;6.10;;
67074;SDS011;53990;50.334;18.640;2022-09-03T04:56:56;12.10;;;6.40;;
67074;SDS011;53990;50.334;18.640;2022-09-03T04:59:23;12.70;;;6.20;;
67074;SDS011;53990;50.334;18.640;2022-09-03T05:01:50;11.50;;;6.30;;
67074;SDS011;53990;50.334;18.640;2022-09-03T05:04:18;15.60;;;6.70;;
67074;SDS011;53990;50.334;18.640;2022-09-03T05:06:45;10.40;;;5.80;;
67074;SDS011;53990;50.334;18.640;2022-09-03T05:09:13;11.30;;;5.90;;
67074;SDS011;53990;50.334;18.640;2022-09-03T05:11:40;12.60;;;6.50;;
67074;SDS011;53990;50.334;18.640;2022-09-03T05:14:07;18.60;;;8.20;;
67074;SDS011;53990;50.334;18.640;2022-09-03T05:16:38;14.30;;;7.10;;
67074;SDS011;53990;50.334;18.640;2022-09-03T05:19:05;13.80;;;7.20;;
67074;SDS011;53990;50.334;18.640;2022-09-03T05:21:34;16.10;;;7.30;;
67074;SDS011;53990;50.334;18.640;2022-09-03T05:24:02;15.20;;;8.00;;
67074;SDS011;53990;50.334;18.640;2022-09-03T05:26:32;14.50;;;7.50;;
67074;SDS011;53990;50.334;18.640;2022-09-03T05:29:01;18.70;;;8.40;;
67074;SDS011;53990;50.334;18.640;2022-09-03T05:31:36;20.90;;;8.70;;
67074;SDS011;53990;50.334;18.640;2022-09-03T05:34:04;22.00;;;9.00;;
67074;SDS011;53990;50.334;18.640;2022-09-03T05:36:34;22.40;;;9.00;;
67074;SDS011;53990;50.334;18.640;2022-09-03T05:39:03;22.50;;;9.20;;
67074;SDS011;53990;50.334;18.640;2022-09-03T05:41:30;17.50;;;7.90;;
67074;SDS011;53990;50.334;18.640;2022-09-03T05:44:00;18.80;;;8.00;;
67074;SDS011;53990;50.334;18.640;2022-09-03T05:46:29;15.50;;;7.90;;
67074;SDS011;53990;50.334;18.640;2022-09-03T05:49:01;12.90;;;6.90;;
67074;SDS011;53990;50.334;18.640;2022-09-03T05:51:29;14.50;;;7.80;;
67074;SDS011;53990;50.334;18.640;2022-09-03T05:53:57;17.00;;;7.40;;
67074;SDS011;53990;50.334;18.640;2022-09-03T05:56:27;16.20;;;7.50;;
67074;SDS011;53990;50.334;18.640;2022-09-03T05:58:57;15.00;;;7.50;;
67074;SDS011;53990;50.334;18.640;2022-09-03T06:01:28;14.80;;;7.40;;
67074;SDS011;53990;50.334;18.640;2022-09-03T06:04:08;17.50;;;8.80;;
67074;SDS011;53990;50.334;18.640;2022-09-03T06:06:38;15.40;;;8.80;;
67074;SDS011;53990;50.334;18.640;2022-09-03T06:09:08;18.20;;;9.10;;
67074;SDS011;53990;50.334;18.640;2022-09-03T06:11:37;17.40;;;9.10;;
67074;SDS011;53990;50.334;18.640;2022-09-03T06:14:07;19.40;;;9.30;;
67074;SDS011;53990;50.334;18.640;2022-09-03T06:16:37;15.50;;;8.60;;
67074;SDS011;53990;50.334;18.640;2022-09-03T06:19:05;19.70;;;9.30;;
67074;SDS011;53990;50.334;18.640;2022-09-03T06:21:36;16.10;;;8.30;;
67074;SDS011;53990;50.334;18.640;2022-09-03T06:24:10;18.10;;;8.30;;
67074;SDS011;53990;50.334;18.640;2022-09-03T06:26:38;16.90;;;8.30;;
67074;SDS011;53990;50.334;18.640;2022-09-03T06:29:06;17.40;;;8.20;;
67074;SDS011;53990;50.334;18.640;2022-09-03T06:31:34;14.00;;;8.00;;
67074;SDS011;53990;50.334;18.640;2022-09-03T06:34:01;14.00;;;7.40;;
67074;SDS011;53990;50.334;18.640;2022-09-03T06:36:29;13.10;;;6.60;;
67074;SDS011;53990;50.334;18.640;2022-09-03T06:38:56;12.50;;;7.10;;
67074;SDS011;53990;50.334;18.640;2022-09-03T06:41:26;11.00;;;6.60;;
67074;SDS011;53990;50.334;18.640;2022-09-03T06:44:03;18.80;;;10.30;;
67074;SDS011;53990;50.334;18.640;2022-09-03T06:46:33;12.70;;;6.70;;
67074;SDS011;53990;50.334;18.640;2022-09-03T06:49:01;11.30;;;6.50;;
67074;SDS011;53990;50.334;18.640;2022-09-03T06:51:30;11.50;;;6.50;;
67074;SDS011;53990;50.334;18.640;2022-09-03T06:54:01;13.20;;;6.30;;
67074;SDS011;53990;50.334;18.640;2022-09-03T06:56:29;13.20;;;7.20;;
67074;SDS011;53990;50.334;18.640;2022-09-03T06:58:57;10.60;;;5.60;;
67074;SDS011;53990;50.334;18.640;2022-09-03T07:01:27;10.10;;;5.70;;
67074;SDS011;53990;50.334;18.640;2022-09-03T07:03:58;12.00;;;5.90;;
67074;SDS011;53990;50.334;18.640;2022-09-03T07:06:29;10.40;;;6.00;;
67074;SDS011;53990;50.334;18.640;2022-09-03T07:08:57;11.40;;;6.00;;
67074;SDS011;53990;50.334;18.640;2022-09-03T07:11:28;12.60;;;7.80;;
67074;SDS011;53990;50.334;18.640;2022-09-03T07:13:57;10.10;;;5.40;;
67074;SDS011;53990;50.334;18.640;2022-09-03T07:16:36;8.30;;;5.10;;
67074;SDS011;53990;50.334;18.640;2022-09-03T07:19:04;8.40;;;5.10;;
67074;SDS011;53990;50.334;18.640;2022-09-03T07:21:34;10.20;;;5.20;;
67074;SDS011;53990;50.334;18.640;2022-09-03T07:24:04;9.80;;;5.50;;
67074;SDS011;53990;50.334;18.640;2022-09-03T07:26:35;9.60;;;5.30;;
67074;SDS011;53990;50.334;18.640;2022-09-03T07:29:05;8.60;;;4.90;;
67074;SDS011;53990;50.334;18.640;2022-09-03T07:31:38;8.70;;;5.00;;
67074;SDS011;53990;50.334;18.640;2022-09-03T07:34:10;12.30;;;5.30;;
67074;SDS011;53990;50.334;18.640;2022-09-03T07:39:11;6.20;;;4.20;;
67074;SDS011;53990;50.334;18.640;2022-09-03T07:41:40;9.40;;;4.40;;
67074;SDS011;53990;50.334;18.640;2022-09-03T07:44:12;6.60;;;3.80;;
67074;SDS011;53990;50.334;18.640;2022-09-03T07:46:41;7.30;;;3.60;;
67074;SDS011;53990;50.334;18.640;2022-09-03T07:49:09;6.90;;;4.00;;
67074;SDS011;53990;50.334;18.640;2022-09-03T07:51:37;8.80;;;3.70;;
67074;SDS011;53990;50.334;18.640;2022-09-03T07:54:07;6.20;;;4.10;;
67074;SDS011;53990;50.334;18.640;2022-09-03T07:56:38;7.50;;;4.00;;
67074;SDS011;53990;50.334;18.640;2022-09-03T07:59:07;8.10;;;4.40;;
67074;SDS011;53990;50.334;18.640;2022-09-03T08:01:37;7.10;;;4.10;;
67074;SDS011;53990;50.334;18.640;2022-09-03T08:04:05;7.20;;;4.20;;
67074;SDS011;53990;50.334;18.640;2022-09-03T08:06:33;9.20;;;4.20;;
67074;SDS011;53990;50.334;18.640;2022-09-03T08:09:03;8.60;;;4.20;;
67074;SDS011;53990;50.334;18.640;2022-09-03T08:11:34;8.20;;;4.60;;
67074;SDS011;53990;50.334;18.640;2022-09-03T08:14:07;9.70;;;4.70;;
67074;SDS011;53990;50.334;18.640;2022-09-03T08:16:37;7.60;;;4.90;;
67074;SDS011;53990;50.334;18.640;2022-09-03T08:19:05;7.40;;;4.40;;
67074;SDS011;53990;50.334;18.640;2022-09-03T08:21:33;9.70;;;4.60;;
67074;SDS011;53990;50.334;18.640;2022-09-03T08:24:01;8.60;;;4.50;;
67074;SDS011;53990;50.334;18.640;2022-09-03T08:26:30;7.70;;;5.00;;
67074;SDS011;53990;50.334;18.640;2022-09-03T08:28:58;8.30;;;5.00;;
67074;SDS011;53990;50.334;18.640;2022-09-03T08:31:27;10.30;;;6.20;;
67074;SDS011;53990;50.334;18.640;2022-09-03T08:33:56;10.50;;;6.20;;
67074;SDS011;53990;50.334;18.640;2022-09-03T08:36:25;7.50;;;5.10;;
67074;SDS011;53990;50.334;18.640;2022-09-03T08:38:53;10.50;;;5.80;;
67074;SDS011;53990;50.334;18.640;2022-09-03T08:44:29;8.30;;;4.40;;
67074;SDS011;53990;50.334;18.640;2022-09-03T08:47:22;8.10;;;4.70;;
67074;SDS011;53990;50.334;18.640;2022-09-03T08:58:35;7.20;;;4.00;;
67074;SDS011;53990;50.334;18.640;2022-09-03T09:06:25;7.00;;;3.90;;
67074;SDS011;53990;50.334;18.640;2022-09-03T09:21:12;7.80;;;3.70;;
67074;SDS011;53990;50.334;18.640;2022-09-03T09:23:49;12.10;;;6.10;;
67074;SDS011;53990;50.334;18.640;2022-09-03T09:26:18;7.10;;;4.20;;
67074;SDS011;53990;50.334;18.640;2022-09-03T09:29:08;10.90;;;4.80;;
67074;SDS011;53990;50.334;18.640;2022-09-03T09:31:46;9.50;;;4.50;;
67074;SDS011;53990;50.334;18.640;2022-09-03T09:34:15;6.50;;;4.00;;
67074;SDS011;53990;50.334;18.640;2022-09-03T09:36:46;6.80;;;4.20;;
67074;SDS011;53990;50.334;18.640;2022-09-03T09:39:14;6.40;;;4.30;;
67074;SDS011;53990;50.334;18.640;2022-09-03T09:41:42;9.40;;;4.10;;
67074;SDS011;53990;50.334;18.640;2022-09-03T09:44:19;7.90;;;4.40;;
67074;SDS011;53990;50.334;18.640;2022-09-03T09:46:47;7.90;;;4.30;;
67074;SDS011;53990;50.334;18.640;2022-09-03T09:49:28;9.30;;;4.80;;
67074;SDS011;53990;50.334;18.640;2022-09-03T09:52:09;8.90;;;4.30;;
67074;SDS011;53990;50.334;18.640;2022-09-03T09:54:40;8.10;;;4.20;;
67074;SDS011;53990;50.334;18.640;2022-09-03T09:57:14;8.60;;;5.00;;
67074;SDS011;53990;50.334;18.640;2022-09-03T09:59:44;10.00;;;4.40;;
67074;SDS011;53990;50.334;18.640;2022-09-03T10:04:41;7.10;;;4.70;;
67074;SDS011;53990;50.334;18.640;2022-09-03T10:07:29;6.90;;;4.20;;
67074;SDS011;53990;50.334;18.640;2022-09-03T10:15:02;7.00;;;4.40;;
67074;SDS011;53990;50.334;18.640;2022-09-03T10:20:18;6.30;;;4.50;;
67074;SDS011;53990;50.334;18.640;2022-09-03T10:28:07;10.50;;;3.70;;
67074;SDS011;53990;50.334;18.640;2022-09-03T10:30:52;5.50;;;3.40;;
67074;SDS011;53990;50.334;18.640;2022-09-03T10:33:29;6.10;;;3.60;;
67074;SDS011;53990;50.334;18.640;2022-09-03T10:36:24;5.30;;;3.20;;
67074;SDS011;53990;50.334;18.640;2022-09-03T10:39:05;4.40;;;2.90;;
67074;SDS011;53990;50.334;18.640;2022-09-03T10:44:33;4.70;;;3.30;;
67074;SDS011;53990;50.334;18.640;2022-09-03T10:50:06;6.60;;;3.50;;
67074;SDS011;53990;50.334;18.640;2022-09-03T10:58:42;5.90;;;3.30;;
67074;SDS011;53990;50.334;18.640;2022-09-03T11:03:55;5.90;;;3.40;;
67074;SDS011;53990;50.334;18.640;2022-09-03T11:06:29;8.50;;;3.90;;
67074;SDS011;53990;50.334;18.640;2022-09-03T11:09:09;5.80;;;3.80;;
67074;SDS011;53990;50.334;18.640;2022-09-03T11:11:43;5.10;;;4.30;;
67074;SDS011;53990;50.334;18.640;2022-09-03T11:14:14;6.30;;;4.60;;
67074;SDS011;53990;50.334;18.640;2022-09-03T11:16:52;4.80;;;3.90;;
67074;SDS011;53990;50.334;18.640;2022-09-03T11:21:53;4.60;;;3.60;;
67074;SDS011;53990;50.334;18.640;2022-09-03T11:24:26;5.30;;;3.70;;
67074;SDS011;53990;50.334;18.640;2022-09-03T11:29:46;7.20;;;4.90;;
67074;SDS011;53990;50.334;18.640;2022-09-03T11:32:23;6.70;;;4.70;;
67074;SDS011;53990;50.334;18.640;2022-09-03T11:34:53;6.50;;;4.20;;
67074;SDS011;53990;50.334;18.640;2022-09-03T11:37:24;6.60;;;4.50;;
67074;SDS011;53990;50.334;18.640;2022-09-03T11:39:58;9.70;;;4.90;;
67074;SDS011;53990;50.334;18.640;2022-09-03T11:42:37;8.80;;;4.60;;
67074;SDS011;53990;50.334;18.640;2022-09-03T11:47:48;7.10;;;4.40;;
67074;SDS011;53990;50.334;18.640;2022-09-03T11:50:20;5.80;;;4.40;;
67074;SDS011;53990;50.334;18.640;2022-09-03T11:52:49;5.50;;;3.90;;
67074;SDS011;53990;50.334;18.640;2022-09-03T11:55:32;6.80;;;4.90;;
67074;SDS011;53990;50.334;18.640;2022-09-03T11:58:28;5.80;;;3.90;;
67074;SDS011;53990;50.334;18.640;2022-09-03T12:00:57;7.30;;;4.20;;
67074;SDS011;53990;50.334;18.640;2022-09-03T12:03:28;8.20;;;3.80;;
67074;SDS011;53990;50.334;18.640;2022-09-03T12:09:15;7.00;;;4.00;;
67074;SDS011;53990;50.334;18.640;2022-09-03T12:11:58;5.10;;;3.50;;
67074;SDS011;53990;50.334;18.640;2022-09-03T12:19:51;5.90;;;4.70;;
67074;SDS011;53990;50.334;18.640;2022-09-03T12:22:22;6.60;;;4.10;;
67074;SDS011;53990;50.334;18.640;2022-09-03T12:24:53;6.50;;;4.00;;
67074;SDS011;53990;50.334;18.640;2022-09-03T12:27:25;5.80;;;4.70;;
67074;SDS011;53990;50.334;18.640;2022-09-03T12:29:56;6.70;;;4.50;;
67074;SDS011;53990;50.334;18.640;2022-09-03T12:32:31;6.10;;;4.20;;
67074;SDS011;53990;50.334;18.640;2022-09-03T12:35:19;9.00;;;4.50;;
67074;SDS011;53990;50.334;18.640;2022-09-03T12:37:50;7.00;;;4.00;;
67074;SDS011;53990;50.334;18.640;2022-09-03T12:40:28;6.20;;;4.30;;
67074;SDS011;53990;50.334;18.640;2022-09-03T12:43:14;7.00;;;4.10;;
67074;SDS011;53990;50.334;18.640;2022-09-03T12:45:47;8.10;;;5.70;;
67074;SDS011;53990;50.334;18.640;2022-09-03T12:48:16;11.40;;;7.90;;
67074;SDS011;53990;50.334;18.640;2022-09-03T12:50:45;6.80;;;4.80;;
67074;SDS011;53990;50.334;18.640;2022-09-03T12:53:23;6.80;;;5.10;;
67074;SDS011;53990;50.334;18.640;2022-09-03T12:55:52;8.60;;;5.10;;
67074;SDS011;53990;50.334;18.640;2022-09-03T13:00:57;6.80;;;4.80;;
67074;SDS011;53990;50.334;18.640;2022-09-03T13:03:28;5.20;;;4.50;;
67074;SDS011;53990;50.334;18.640;2022-09-03T13:06:05;6.00;;;4.50;;
67074;SDS011;53990;50.334;18.640;2022-09-03T13:08:43;5.80;;;4.80;;
67074;SDS011;53990;50.334;18.640;2022-09-03T13:11:15;5.60;;;4.80;;
67074;SDS011;53990;50.334;18.640;2022-09-03T13:14:10;6.20;;;4.90;;
67074;SDS011;53990;50.334;18.640;2022-09-03T13:30:00;9.30;;;7.30;;
67074;SDS011;53990;50.334;18.640;2022-09-03T13:35:20;7.30;;;4.70;;
67074;SDS011;53990;50.334;18.640;2022-09-03T13:40:35;6.90;;;4.20;;
67074;SDS011;53990;50.334;18.640;2022-09-03T13:48:25;6.00;;;4.90;;
67074;SDS011;53990;50.334;18.640;2022-09-03T13:51:18;8.70;;;5.00;;
67074;SDS011;53990;50.334;18.640;2022-09-03T13:57:06;6.70;;;4.70;;
67074;SDS011;53990;50.334;18.640;2022-09-03T14:05:09;8.60;;;5.20;;
67074;SDS011;53990;50.334;18.640;2022-09-03T14:23:35;7.20;;;4.90;;
67074;SDS011;53990;50.334;18.640;2022-09-03T14:26:16;6.80;;;4.60;;
67074;SDS011;53990;50.334;18.640;2022-09-03T14:28:56;5.80;;;4.70;;
67074;SDS011;53990;50.334;18.640;2022-09-03T14:42:43;7.90;;;6.00;;
67074;SDS011;53990;50.334;18.640;2022-09-03T14:47:56;8.50;;;5.20;;
67074;SDS011;53990;50.334;18.640;2022-09-03T14:50:56;6.90;;;5.50;;
67074;SDS011;53990;50.334;18.640;2022-09-03T14:53:47;7.10;;;5.50;;
67074;SDS011;53990;50.334;18.640;2022-09-03T15:01:34;7.40;;;4.90;;
67074;SDS011;53990;50.334;18.640;2022-09-03T15:09:39;8.50;;;5.20;;
67074;SDS011;53990;50.334;18.640;2022-09-03T15:12:24;8.10;;;5.40;;
67074;SDS011;53990;50.334;18.640;2022-09-03T15:14:57;7.70;;;5.10;;
67074;SDS011;53990;50.334;18.640;2022-09-03T15:20:20;6.90;;;4.90;;
67074;SDS011;53990;50.334;18.640;2022-09-03T15:23:10;8.50;;;5.10;;
67074;SDS011;53990;50.334;18.640;2022-09-03T15:28:43;6.60;;;4.70;;
67074;SDS011;53990;50.334;18.640;2022-09-03T15:31:31;6.90;;;5.10;;
67074;SDS011;53990;50.334;18.640;2022-09-03T15:34:24;8.00;;;5.50;;
67074;SDS011;53990;50.334;18.640;2022-09-03T15:37:00;8.60;;;5.60;;
67074;SDS011;53990;50.334;18.640;2022-09-03T15:39:35;8.80;;;5.60;;
67074;SDS011;53990;50.334;18.640;2022-09-03T15:42:07;7.60;;;5.50;;
67074;SDS011;53990;50.334;18.640;2022-09-03T15:44:44;7.90;;;5.30;;
67074;SDS011;53990;50.334;18.640;2022-09-03T15:50:02;9.10;;;5.40;;
67074;SDS011;53990;50.334;18.640;2022-09-03T15:52:44;7.80;;;5.50;;
67074;SDS011;53990;50.334;18.640;2022-09-03T15:55:29;7.90;;;5.40;;
67074;SDS011;53990;50.334;18.640;2022-09-03T15:58:03;6.70;;;4.70;;
67074;SDS011;53990;50.334;18.640;2022-09-03T16:03:12;8.20;;;5.40;;
67074;SDS011;53990;50.334;18.640;2022-09-03T16:09:02;8.20;;;5.60;;
67074;SDS011;53990;50.334;18.640;2022-09-03T16:11:44;8.40;;;5.30;;
67074;SDS011;53990;50.334;18.640;2022-09-03T16:14:22;11.40;;;7.30;;
67074;SDS011;53990;50.334;18.640;2022-09-03T16:17:02;9.20;;;6.20;;
67074;SDS011;53990;50.334;18.640;2022-09-03T16:19:40;8.10;;;5.80;;
67074;SDS011;53990;50.334;18.640;2022-09-03T16:22:25;7.90;;;5.70;;
67074;SDS011;53990;50.334;18.640;2022-09-03T16:25:01;7.70;;;5.60;;
67074;SDS011;53990;50.334;18.640;2022-09-03T16:27:59;9.00;;;5.30;;
67074;SDS011;53990;50.334;18.640;2022-09-03T16:44:26;9.90;;;6.80;;
67074;SDS011;53990;50.334;18.640;2022-09-03T17:01:37;15.40;;;8.90;;
67074;SDS011;53990;50.334;18.640;2022-09-03T17:15:15;17.80;;;10.80;;
67074;SDS011;53990;50.334;18.640;2022-09-03T17:26:15;15.00;;;10.10;;
67074;SDS011;53990;50.334;18.640;2022-09-03T17:43:11;12.20;;;8.00;;
67074;SDS011;53990;50.334;18.640;2022-09-03T17:46:06;14.20;;;10.00;;
67074;SDS011;53990;50.334;18.640;2022-09-03T17:51:39;18.70;;;12.40;;
67074;SDS011;53990;50.334;18.640;2022-09-03T17:57:14;17.40;;;11.00;;
67074;SDS011;53990;50.334;18.640;2022-09-03T18:00:09;17.90;;;10.80;;
67074;SDS011;53990;50.334;18.640;2022-09-03T18:05:18;17.40;;;12.60;;
67074;SDS011;53990;50.334;18.640;2022-09-03T18:08:19;16.10;;;11.10;;
67074;SDS011;53990;50.334;18.640;2022-09-03T18:16:33;15.90;;;11.00;;
67074;SDS011;53990;50.334;18.640;2022-09-03T18:19:19;14.00;;;10.20;;
67074;SDS011;53990;50.334;18.640;2022-09-03T18:21:57;12.80;;;9.40;;
67074;SDS011;53990;50.334;18.640;2022-09-03T18:24:51;11.50;;;9.70;;
67074;SDS011;53990;50.334;18.640;2022-09-03T18:27:48;14.20;;;9.50;;
67074;SDS011;53990;50.334;18.640;2022-09-03T18:30:35;15.50;;;12.80;;
67074;SDS011;53990;50.334;18.640;2022-09-03T18:33:24;16.10;;;12.40;;
67074;SDS011;53990;50.334;18.640;2022-09-03T18:36:11;19.00;;;13.20;;
67074;SDS011;53990;50.334;18.640;2022-09-03T18:45:33;11.80;;;8.90;;
67074;SDS011;53990;50.334;18.640;2022-09-03T18:48:45;13.80;;;9.60;;
67074;SDS011;53990;50.334;18.640;2022-09-03T18:51:45;11.40;;;8.90;;
67074;SDS011;53990;50.334;18.640;2022-09-03T19:01:09;13.80;;;9.10;;
67074;SDS011;53990;50.334;18.640;2022-09-03T19:06:53;11.00;;;7.30;;
67074;SDS011;53990;50.334;18.640;2022-09-03T19:09:46;12.50;;;8.30;;
67074;SDS011;53990;50.334;18.640;2022-09-03T19:12:49;12.10;;;8.20;;
67074;SDS011;53990;50.334;18.640;2022-09-03T19:22:12;15.00;;;10.30;;
67074;SDS011;53990;50.334;18.640;2022-09-03T19:25:11;16.00;;;11.70;;
67074;SDS011;53990;50.334;18.640;2022-09-03T19:31:34;14.90;;;10.30;;
67074;SDS011;53990;50.334;18.640;2022-09-03T19:43:42;13.30;;;10.00;;
67074;SDS011;53990;50.334;18.640;2022-09-03T19:46:50;13.70;;;10.00;;
67074;SDS011;53990;50.334;18.640;2022-09-03T19:50:04;15.40;;;11.20;;
67074;SDS011;53990;50.334;18.640;2022-09-03T19:53:01;12.60;;;9.90;;
67074;SDS011;53990;50.334;18.640;2022-09-03T19:55:59;15.40;;;11.50;;
67074;SDS011;53990;50.334;18.640;2022-09-03T19:58:54;21.70;;;14.00;;
67074;SDS011;53990;50.334;18.640;2022-09-03T20:01:41;25.20;;;16.10;;
67074;SDS011;53990;50.334;18.640;2022-09-03T20:04:35;19.80;;;14.10;;
67074;SDS011;53990;50.334;18.640;2022-09-03T20:07:23;19.00;;;13.20;;
67074;SDS011;53990;50.334;18.640;2022-09-03T20:10:11;15.80;;;11.10;;
67074;SDS011;53990;50.334;18.640;2022-09-03T20:15:45;15.30;;;11.10;;
67074;SDS011;53990;50.334;18.640;2022-09-03T20:21:17;15.30;;;10.80;;
67074;SDS011;53990;50.334;18.640;2022-09-03T20:26:23;15.60;;;10.00;;
67074;SDS011;53990;50.334;18.640;2022-09-03T20:31:58;13.40;;;9.70;;
67074;SDS011;53990;50.334;18.640;2022-09-03T20:35:14;13.70;;;10.10;;
67074;SDS011;53990;50.334;18.640;2022-09-03T20:41:02;14.80;;;10.50;;
67074;SDS011;53990;50.334;18.640;2022-09-03T20:43:56;13.50;;;10.10;;
67074;SDS011;53990;50.334;18.640;2022-09-03T20:49:23;15.30;;;11.20;;
67074;SDS011;53990;50.334;18.640;2022-09-03T20:52:19;16.40;;;10.70;;
67074;SDS011;53990;50.334;18.640;2022-09-03T21:00:12;19.50;;;13.50;;
67074;SDS011;53990;50.334;18.640;2022-09-03T21:05:44;15.40;;;10.60;;